Time;durP1;ratioP1;P1;durP2;ratioP2;P2;SDS_P1;SDS_P2;PMS_P1;PMS_P2;Temp;Humidity;BMP_temperature;BMP_pressure;BME280_temperature;BME280_humidity;BME280_pressure;Samples;Min_cycle;Max_cycle;Signal;HPM_P1;HPM_P2
2022/01/13 00:00:20;;;;;;;;;;;;;;;;;;4216889;28;2875;-55
2022/01/13 00:02:49;;;;;;;;;;;;;;;;;;4206267;28;1014;-55
2022/01/13 00:05:09;;;;;;;;;;;;;;;;;;4217166;28;1914;-55
2022/01/13 00:07:29;;;;;;;;;;;;;;;;;;4220264;28;1548;-55
2022/01/13 00:09:50;;;;;;;;;;;;;;;;;;4221668;28;1975;-56
2022/01/13 00:12:11;;;;;;;;;;;;;;;;;;4221298;28;1902;-55
2022/01/13 00:14:51;;;;;;;;;;;;;;;;;;4219073;28;2051;-55
2022/01/13 00:17:26;;;;;;;;;;;;;;;;;;4220416;28;1558;-55
2022/01/13 00:19:55;;;;;;;;;;;;;;;;;;4219780;28;1814;-55
2022/01/13 00:22:20;;;;;;;;;;;;;;;;;;4219988;28;1819;-55
2022/01/13 00:24:42;;;;;;;;;;;;;;;;;;4219388;28;2206;-56
2022/01/13 00:27:09;;;;;;;;;;;;;;;;;;4219081;28;1690;-55
2022/01/13 00:29:31;;;;;;;;;;;;;;;;;;4204493;28;1423;-55
2022/01/13 00:31:51;;;;;;;;;;;;;;;;;;4222123;28;2378;-55
2022/01/13 00:34:12;;;;;;;;;;;;;;;;;;4221083;28;1906;-55
2022/01/13 00:36:32;;;;;;;;;;;;;;;;;;4222612;28;1199;-56
2022/01/13 00:38:52;;;;;;;;;;;;;;;;;;4222411;28;978;-56
2022/01/13 00:41:13;;;;;;;;;;;;;;;;;;4222335;28;964;-55
2022/01/13 00:43:37;;;;;;;;;;;;;;;;;;4222298;28;953;-56
2022/01/13 00:45:57;;;;;;;;;;;;;;;;;;4222202;28;1095;-56
2022/01/13 00:48:18;;;;;;;;;;;;;;;;;;4222339;28;989;-55
2022/01/13 00:50:38;;;;;;;;;;;;;;;;;;4222288;28;1016;-55
2022/01/13 00:52:58;;;;;;;;;;;;;;;;;;4222028;28;1982;-55
2022/01/13 00:55:22;;;;;;;;;;;;;;;;;;4222231;28;1231;-55
2022/01/13 00:57:42;;;;;;;;;;;;;;;;;;4221266;28;1008;-55
2022/01/13 01:00:03;;;;;;;;;;;;;;;;;;4222384;28;1159;-56
2022/01/13 01:02:23;;;;;;;;;;;;;;;;;;4222128;28;1267;-55
2022/01/13 01:04:44;;;;;;;;;;;;;;;;;;4222220;28;918;-55
2022/01/13 01:07:04;;;;;;;;;;;;;;;;;;4221855;28;1024;-55
2022/01/13 01:09:36;;;;;;;;;;;;;;;;;;4222224;28;948;-55
2022/01/13 01:11:56;;;;;;;;;;;;;;;;;;4221916;28;997;-55
2022/01/13 01:14:18;;;;;;;;;;;;;;;;;;4221849;28;1996;-55
2022/01/13 01:16:38;;;;;;;;;;;;;;;;;;4220995;28;1019;-55
2022/01/13 01:19:03;;;;;;;;;;;;;;;;;;4232662;28;1075;-55
2022/01/13 01:24:28;;;;;;;;;;;;;;;;;;4231217;28;1284;-55
2022/01/13 01:26:52;;;;;;;;;;;;;;;;;;4239665;28;1104;-55
2022/01/13 01:29:19;;;;;;;;;;;;;;;;;;4238570;28;1080;-55
2022/01/13 01:31:45;;;;;;;;;;;;;;;;;;4238286;28;1030;-55
2022/01/13 01:34:19;;;;;;;;;;;;;;;;;;4223293;28;1934;-55
2022/01/13 01:36:40;;;;;;;;;;;;;;;;;;4238269;28;1015;-56
2022/01/13 01:39:00;;;;;;;;;;;;;;;;;;4238799;28;1189;-55
2022/01/13 01:41:20;;;;;;;;;;;;;;;;;;4238712;28;906;-55
2022/01/13 01:43:41;;;;;;;;;;;;;;;;;;4238210;28;957;-55
2022/01/13 01:46:01;;;;;;;;;;;;;;;;;;4238627;28;956;-55
2022/01/13 01:48:21;;;;;;;;;;;;;;;;;;4238377;28;1156;-55
2022/01/13 01:50:42;;;;;;;;;;;;;;;;;;4223133;28;1115;-55
2022/01/13 01:53:03;;;;;;;;;;;;;;;;;;4223149;28;1905;-55
2022/01/13 01:55:23;;;;;;;;;;;;;;;;;;4238159;28;1097;-55
2022/01/13 01:57:48;;;;;;;;;;;;;;;;;;4238346;28;985;-55
2022/01/13 02:03:43;;;;;;;;;;;;;;;;;;4234948;28;1235;-55
2022/01/13 02:06:04;;;;;;;;;;;;;;;;;;4223483;28;1070;-55
2022/01/13 02:08:24;;;;;;;;;;;;;;;;;;4224023;28;1322;-55
2022/01/13 02:10:45;;;;;;;;;;;;;;;;;;4224025;28;1089;-55
2022/01/13 02:13:09;;;;;;;;;;;;;;;;;;4224188;28;1913;-55
2022/01/13 02:15:33;;;;;;;;;;;;;;;;;;4223711;28;1167;-55
2022/01/13 02:17:53;;;;;;;;;;;;;;;;;;4224131;28;1267;-55
2022/01/13 02:20:14;;;;;;;;;;;;;;;;;;4223667;28;987;-55
2022/01/13 02:22:35;;;;;;;;;;;;;;;;;;4208865;28;850;-55
2022/01/13 02:24:55;;;;;;;;;;;;;;;;;;4208480;28;990;-55
2022/01/13 02:27:16;;;;;;;;;;;;;;;;;;4208843;28;958;-55
2022/01/13 02:29:36;;;;;;;;;;;;;;;;;;4223674;28;1224;-55
2022/01/13 02:31:57;;;;;;;;;;;;;;;;;;4224679;28;980;-55
2022/01/13 02:34:17;;;;;;;;;;;;;;;;;;4223633;28;1910;-55
2022/01/13 02:36:38;;;;;;;;;;;;;;;;;;4223578;28;1077;-56
2022/01/13 02:38:59;;;;;;;;;;;;;;;;;;4223769;28;1272;-57
2022/01/13 02:41:22;;;;;;;;;;;;;;;;;;4223758;28;1188;-58
2022/01/13 02:43:43;;;;;;;;;;;;;;;;;;4205454;28;1032;-57
2022/01/13 02:46:08;;;;;;;;;;;;;;;;;;4223672;28;1189;-57
2022/01/13 02:48:30;;;;;;;;;;;;;;;;;;4223975;28;1048;-57
2022/01/13 02:50:51;;;;;;;;;;;;;;;;;;4223678;28;1029;-57
2022/01/13 02:53:11;;;;;;;;;;;;;;;;;;4208178;28;1972;-57
2022/01/13 02:55:32;;;;;;;;;;;;;;;;;;4223434;28;1012;-58
2022/01/13 02:57:52;;;;;;;;;;;;;;;;;;4208224;28;1039;-57
2022/01/13 03:00:13;;;;;;;;;;;;;;;;;;4207974;28;894;-58
2022/01/13 03:02:33;;;;;;;;;;;;;;;;;;4223851;28;1077;-57
2022/01/13 03:04:54;;;;;;;;;;;;;;;;;;4223337;28;1178;-57
2022/01/13 03:07:14;;;;;;;;;;;;;;;;;;4205561;28;1058;-58
2022/01/13 03:09:34;;;;;;;;;;;;;;;;;;4221984;28;1213;-57
2022/01/13 03:11:55;;;;;;;;;;;;;;;;;;4223309;28;1355;-57
2022/01/13 03:14:15;;;;;;;;;;;;;;;;;;4222755;28;1910;-57
2022/01/13 03:16:36;;;;;;;;;;;;;;;;;;4223178;28;998;-57
2022/01/13 03:18:56;;;;;;;;;;;;;;;;;;4223572;28;1320;-57
2022/01/13 03:21:17;;;;;;;;;;;;;;;;;;4223527;28;1097;-57
2022/01/13 03:23:37;;;;;;;;;;;;;;;;;;4223750;28;1004;-57
2022/01/13 03:25:58;;;;;;;;;;;;;;;;;;4223490;28;963;-57
2022/01/13 03:28:28;;;;;;;;;;;;;;;;;;4207499;28;1140;-58
2022/01/13 03:30:49;;;;;;;;;;;;;;;;;;4223450;28;1031;-57
2022/01/13 03:33:09;;;;;;;;;;;;;;;;;;4223091;28;1153;-57
2022/01/13 03:35:30;;;;;;;;;;;;;;;;;;4223283;28;1245;-57
2022/01/13 03:37:50;;;;;;;;;;;;;;;;;;4223258;28;1001;-57
2022/01/13 03:40:10;;;;;;;;;;;;;;;;;;4222850;28;1088;-58
2022/01/13 03:42:30;;;;;;;;;;;;;;;;;;4223037;28;1038;-57
2022/01/13 03:44:51;;;;;;;;;;;;;;;;;;4207551;28;1109;-57
2022/01/13 03:47:13;;;;;;;;;;;;;;;;;;4222713;28;1087;-58
2022/01/13 03:49:34;;;;;;;;;;;;;;;;;;4222887;28;1182;-57
2022/01/13 03:51:55;;;;;;;;;;;;;;;;;;4223065;28;947;-57
2022/01/13 03:54:16;;;;;;;;;;;;;;;;;;4207189;28;1901;-57
2022/01/13 03:56:36;;;;;;;;;;;;;;;;;;4222621;28;1118;-58
2022/01/13 03:58:57;;;;;;;;;;;;;;;;;;4207620;28;1060;-57
2022/01/13 04:01:17;;;;;;;;;;;;;;;;;;4223194;28;1009;-58
2022/01/13 04:03:37;;;;;;;;;;;;;;;;;;4222587;28;1209;-58
2022/01/13 04:05:58;;;;;;;;;;;;;;;;;;4206919;28;1045;-57
2022/01/13 04:08:18;;;;;;;;;;;;;;;;;;4222927;28;1166;-57
2022/01/13 04:10:39;;;;;;;;;;;;;;;;;;4222811;28;1104;-58
2022/01/13 04:13:00;;;;;;;;;;;;;;;;;;4222382;28;837;-58
2022/01/13 04:15:23;;;;;;;;;;;;;;;;;;4222466;28;1913;-57
2022/01/13 04:17:43;;;;;;;;;;;;;;;;;;4222486;28;1192;-58
2022/01/13 04:20:04;;;;;;;;;;;;;;;;;;4222438;28;967;-57
2022/01/13 04:22:24;;;;;;;;;;;;;;;;;;4222807;28;940;-57
2022/01/13 04:24:45;;;;;;;;;;;;;;;;;;4222409;28;946;-57
2022/01/13 04:27:07;;;;;;;;;;;;;;;;;;4223082;28;983;-57
2022/01/13 04:29:33;;;;;;;;;;;;;;;;;;4222783;28;1165;-57
2022/01/13 04:31:54;;;;;;;;;;;;;;;;;;4222724;28;814;-57
2022/01/13 04:34:14;;;;;;;;;;;;;;;;;;4222672;28;1902;-57
2022/01/13 04:36:35;;;;;;;;;;;;;;;;;;4222932;28;1032;-58
2022/01/13 04:38:55;;;;;;;;;;;;;;;;;;4222676;28;992;-58
2022/01/13 04:41:27;;;;;;;;;;;;;;;;;;4222470;28;1006;-57
2022/01/13 04:43:47;;;;;;;;;;;;;;;;;;4222109;28;965;-57
2022/01/13 04:46:08;;;;;;;;;;;;;;;;;;4222478;28;865;-58
2022/01/13 04:48:28;;;;;;;;;;;;;;;;;;4222007;28;1287;-58
2022/01/13 04:50:49;;;;;;;;;;;;;;;;;;4222550;28;821;-57
2022/01/13 04:53:09;;;;;;;;;;;;;;;;;;4222080;28;1149;-57
2022/01/13 04:55:32;;;;;;;;;;;;;;;;;;4206360;28;1905;-57
2022/01/13 04:57:52;;;;;;;;;;;;;;;;;;4206456;28;1020;-58
2022/01/13 05:00:13;;;;;;;;;;;;;;;;;;4221811;28;1297;-58
2022/01/13 05:02:33;;;;;;;;;;;;;;;;;;4221691;28;942;-57
2022/01/13 05:04:54;;;;;;;;;;;;;;;;;;4221819;28;1181;-57
2022/01/13 05:07:14;;;;;;;;;;;;;;;;;;4222148;28;940;-58
2022/01/13 05:09:35;;;;;;;;;;;;;;;;;;4221637;28;1005;-58
2022/01/13 05:11:55;;;;;;;;;;;;;;;;;;4221669;28;1196;-58
2022/01/13 05:14:15;;;;;;;;;;;;;;;;;;4206372;28;1976;-57
2022/01/13 05:16:50;;;;;;;;;;;;;;;;;;4206949;28;1067;-55
2022/01/13 05:19:12;;;;;;;;;;;;;;;;;;4221645;28;1277;-55
2022/01/13 05:21:54;;;;;;;;;;;;;;;;;;4221742;28;945;-54
2022/01/13 05:24:15;;;;;;;;;;;;;;;;;;4207234;28;996;-55
2022/01/13 05:26:36;;;;;;;;;;;;;;;;;;4222163;28;843;-55
2022/01/13 05:28:56;;;;;;;;;;;;;;;;;;4221601;28;1169;-55
2022/01/13 05:31:16;;;;;;;;;;;;;;;;;;4221481;28;1161;-54
2022/01/13 05:33:38;;;;;;;;;;;;;;;;;;4220784;28;1180;-53
2022/01/13 05:35:58;;;;;;;;;;;;;;;;;;4222024;28;1898;-53
2022/01/13 05:38:19;;;;;;;;;;;;;;;;;;4222449;28;853;-53
2022/01/13 05:40:40;;;;;;;;;;;;;;;;;;4206770;28;868;-53
2022/01/13 05:43:00;;;;;;;;;;;;;;;;;;4221846;28;1379;-53
2022/01/13 05:45:28;;;;;;;;;;;;;;;;;;4206544;28;1240;-53
2022/01/13 05:47:48;;;;;;;;;;;;;;;;;;4220516;28;1694;-53
2022/01/13 05:50:09;;;;;;;;;;;;;;;;;;4207171;28;1006;-53
2022/01/13 05:52:30;;;;;;;;;;;;;;;;;;4204924;28;996;-53
2022/01/13 05:54:50;;;;;;;;;;;;;;;;;;4205197;28;1905;-53
2022/01/13 05:57:11;;;;;;;;;;;;;;;;;;4205028;28;1817;-53
2022/01/13 05:59:31;;;;;;;;;;;;;;;;;;4204819;28;1028;-54
2022/01/13 06:01:51;;;;;;;;;;;;;;;;;;4217933;28;1808;-53
2022/01/13 06:04:12;;;;;;;;;;;;;;;;;;4221531;28;1015;-53
2022/01/13 06:06:32;;;;;;;;;;;;;;;;;;4221342;28;1312;-53
2022/01/13 06:08:52;;;;;;;;;;;;;;;;;;4221389;28;993;-55
2022/01/13 06:11:12;;;;;;;;;;;;;;;;;;4221101;28;1160;-55
2022/01/13 06:13:33;;;;;;;;;;;;;;;;;;4204825;28;2285;-56
2022/01/13 06:15:53;;;;;;;;;;;;;;;;;;4210967;28;1988;-55
2022/01/13 06:18:14;;;;;;;;;;;;;;;;;;4204516;28;1474;-55
2022/01/13 06:20:34;;;;;;;;;;;;;;;;;;4204528;28;974;-55
2022/01/13 06:22:54;;;;;;;;;;;;;;;;;;4203865;28;927;-56
2022/01/13 06:25:14;;;;;;;;;;;;;;;;;;4203709;28;977;-55
2022/01/13 06:27:35;;;;;;;;;;;;;;;;;;4203863;28;1251;-56
2022/01/13 06:29:57;;;;;;;;;;;;;;;;;;4227521;28;1751;-56
2022/01/13 06:32:17;;;;;;;;;;;;;;;;;;4219246;28;945;-56
2022/01/13 06:34:38;;;;;;;;;;;;;;;;;;4213278;28;2483;-56
2022/01/13 06:36:58;;;;;;;;;;;;;;;;;;4206188;28;1187;-55
2022/01/13 06:39:18;;;;;;;;;;;;;;;;;;4204254;28;978;-56
2022/01/13 06:41:40;;;;;;;;;;;;;;;;;;4204207;28;929;-55
2022/01/13 06:44:00;;;;;;;;;;;;;;;;;;4204965;28;947;-57
2022/01/13 06:46:20;;;;;;;;;;;;;;;;;;4191148;28;1352;-55
2022/01/13 06:48:40;;;;;;;;;;;;;;;;;;4208879;28;2049;-56
2022/01/13 06:51:01;;;;;;;;;;;;;;;;;;4197880;28;1005;-56
2022/01/13 06:53:21;;;;;;;;;;;;;;;;;;4208059;28;1029;-55
2022/01/13 06:55:42;;;;;;;;;;;;;;;;;;4223501;28;1905;-55
2022/01/13 06:58:03;;;;;;;;;;;;;;;;;;4235948;28;2595;-56
2022/01/13 07:00:24;;;;;;;;;;;;;;;;;;4213204;28;1001;-54
2022/01/13 07:02:45;;;;;;;;;;;;;;;;;;4223590;28;1192;-55
2022/01/13 07:05:05;;;;;;;;;;;;;;;;;;4223751;28;883;-55
2022/01/13 07:07:25;;;;;;;;;;;;;;;;;;4223264;28;1123;-56
2022/01/13 07:09:46;;;;;;;;;;;;;;;;;;4219160;28;2291;-54
2022/01/13 07:12:08;;;;;;;;;;;;;;;;;;4208308;28;1893;-54
2022/01/13 07:14:28;;;;;;;;;;;;;;;;;;4222986;28;1044;-55
2022/01/13 07:16:49;;;;;;;;;;;;;;;;;;4223481;28;1984;-54
2022/01/13 07:19:09;;;;;;;;;;;;;;;;;;4235084;28;1400;-54
2022/01/13 07:21:30;;;;;;;;;;;;;;;;;;4240406;28;880;-55
2022/01/13 07:23:50;;;;;;;;;;;;;;;;;;4224737;28;1210;-54
2022/01/13 07:26:10;;;;;;;;;;;;;;;;;;4240034;28;1354;-55
2022/01/13 07:28:31;;;;;;;;;;;;;;;;;;4239836;28;1141;-55
2022/01/13 07:30:51;;;;;;;;;;;;;;;;;;4240431;28;934;-54
2022/01/13 07:33:12;;;;;;;;;;;;;;;;;;4240230;28;854;-54
2022/01/13 07:35:32;;;;;;;;;;;;;;;;;;4239725;28;1910;-55
2022/01/13 07:37:53;;;;;;;;;;;;;;;;;;4239778;28;1214;-56
2022/01/13 07:40:15;;;;;;;;;;;;;;;;;;4239885;28;1343;-56
2022/01/13 07:42:41;;;;;;;;;;;;;;;;;;4239676;28;966;-56
2022/01/13 07:45:02;;;;;;;;;;;;;;;;;;4239914;28;1218;-56
2022/01/13 07:47:22;;;;;;;;;;;;;;;;;;4240067;28;821;-56
2022/01/13 07:49:42;;;;;;;;;;;;;;;;;;4239585;28;1366;-56
2022/01/13 07:52:03;;;;;;;;;;;;;;;;;;4239674;28;1017;-56
2022/01/13 07:54:25;;;;;;;;;;;;;;;;;;4239800;28;1063;-56
2022/01/13 07:56:46;;;;;;;;;;;;;;;;;;4238671;28;1910;-56
2022/01/13 07:59:06;;;;;;;;;;;;;;;;;;4239569;28;1086;-56
2022/01/13 08:01:27;;;;;;;;;;;;;;;;;;4239516;28;1274;-56
2022/01/13 08:03:47;;;;;;;;;;;;;;;;;;4239120;28;979;-56
2022/01/13 08:06:08;;;;;;;;;;;;;;;;;;4238657;28;1094;-56
2022/01/13 08:08:29;;;;;;;;;;;;;;;;;;4238551;28;1071;-56
2022/01/13 08:10:49;;;;;;;;;;;;;;;;;;4237205;28;1415;-56
2022/01/13 08:13:10;;;;;;;;;;;;;;;;;;4238283;28;1005;-56
2022/01/13 08:15:30;;;;;;;;;;;;;;;;;;4238244;28;1910;-56
2022/01/13 08:20:29;;;;;;;;;;;;;;;;;;4212920;28;1251;-56
2022/01/13 08:22:49;;;;;;;;;;;;;;;;;;4221341;28;1091;-56
2022/01/13 08:25:10;;;;;;;;;;;;;;;;;;4221394;28;1268;-56
2022/01/13 08:27:31;;;;;;;;;;;;;;;;;;4222175;28;870;-56
2022/01/13 08:29:51;;;;;;;;;;;;;;;;;;4222616;28;928;-56
2022/01/13 08:32:12;;;;;;;;;;;;;;;;;;4222167;28;996;-56
2022/01/13 08:34:32;;;;;;;;;;;;;;;;;;4222556;28;932;-56
2022/01/13 08:36:53;;;;;;;;;;;;;;;;;;4222021;28;1879;-56
2022/01/13 08:39:13;;;;;;;;;;;;;;;;;;4222582;28;837;-56
2022/01/13 08:41:33;;;;;;;;;;;;;;;;;;4222162;28;1390;-56
2022/01/13 08:43:55;;;;;;;;;;;;;;;;;;4222184;28;1433;-56
2022/01/13 08:46:15;;;;;;;;;;;;;;;;;;4221990;28;1054;-56
2022/01/13 08:48:36;;;;;;;;;;;;;;;;;;4222021;28;1062;-56
2022/01/13 08:50:56;;;;;;;;;;;;;;;;;;4222410;28;1028;-56
2022/01/13 08:53:16;;;;;;;;;;;;;;;;;;4222310;28;1185;-56
2022/01/13 08:55:37;;;;;;;;;;;;;;;;;;4222224;28;1905;-56
2022/01/13 08:57:57;;;;;;;;;;;;;;;;;;4206948;28;1076;-56
2022/01/13 09:00:17;;;;;;;;;;;;;;;;;;4222352;28;1091;-56
2022/01/13 09:02:38;;;;;;;;;;;;;;;;;;4221852;28;1169;-56
2022/01/13 09:04:58;;;;;;;;;;;;;;;;;;4221799;28;1007;-56
2022/01/13 09:07:19;;;;;;;;;;;;;;;;;;4221713;28;1262;-56
2022/01/13 09:09:39;;;;;;;;;;;;;;;;;;4221850;28;992;-56
2022/01/13 09:12:00;;;;;;;;;;;;;;;;;;4217253;28;2244;-56
2022/01/13 09:14:25;;;;;;;;;;;;;;;;;;4219803;28;1422;-55
2022/01/13 09:16:47;;;;;;;;;;;;;;;;;;4219573;28;2096;-55
2022/01/13 09:19:12;;;;;;;;;;;;;;;;;;4221930;28;1391;-55
2022/01/13 09:21:32;;;;;;;;;;;;;;;;;;4219036;28;1786;-55
2022/01/13 09:23:52;;;;;;;;;;;;;;;;;;4221574;28;1694;-55
2022/01/13 09:26:13;;;;;;;;;;;;;;;;;;4220879;28;1981;-55
2022/01/13 09:28:33;;;;;;;;;;;;;;;;;;4221263;28;1817;-55
2022/01/13 09:30:53;;;;;;;;;;;;;;;;;;4220535;28;2057;-55
2022/01/13 09:33:14;;;;;;;;;;;;;;;;;;4219717;28;2210;-55
2022/01/13 09:35:34;;;;;;;;;;;;;;;;;;4221135;28;1824;-55
2022/01/13 09:37:54;;;;;;;;;;;;;;;;;;4205081;28;1288;-56
2022/01/13 09:40:15;;;;;;;;;;;;;;;;;;4204920;28;1000;-55
2022/01/13 09:42:35;;;;;;;;;;;;;;;;;;4204821;28;930;-55
2022/01/13 09:44:57;;;;;;;;;;;;;;;;;;4219032;28;1392;-54
2022/01/13 09:47:17;;;;;;;;;;;;;;;;;;4216641;28;1832;-55
2022/01/13 09:49:37;;;;;;;;;;;;;;;;;;4221646;28;945;-55
2022/01/13 09:51:58;;;;;;;;;;;;;;;;;;4221278;28;999;-55
2022/01/13 09:54:20;;;;;;;;;;;;;;;;;;4221480;28;1362;-56
2022/01/13 09:56:41;;;;;;;;;;;;;;;;;;4221230;28;2000;-56
2022/01/13 09:59:01;;;;;;;;;;;;;;;;;;4212146;28;1701;-56
2022/01/13 10:01:21;;;;;;;;;;;;;;;;;;4209109;28;1036;-56
2022/01/13 10:03:42;;;;;;;;;;;;;;;;;;4204735;28;898;-57
2022/01/13 10:06:03;;;;;;;;;;;;;;;;;;4204604;28;944;-57
2022/01/13 10:08:23;;;;;;;;;;;;;;;;;;4204385;28;1172;-57
2022/01/13 10:10:44;;;;;;;;;;;;;;;;;;4210434;28;1005;-56
2022/01/13 10:13:04;;;;;;;;;;;;;;;;;;4225067;28;1079;-56
2022/01/13 10:18:03;;;;;;;;;;;;;;;;;;4238176;28;1321;-56
2022/01/13 10:20:23;;;;;;;;;;;;;;;;;;4225161;28;980;-56
2022/01/13 10:22:44;;;;;;;;;;;;;;;;;;4223449;28;1437;-57
2022/01/13 10:25:04;;;;;;;;;;;;;;;;;;4223744;28;1053;-56
2022/01/13 10:27:24;;;;;;;;;;;;;;;;;;4220118;28;2378;-56
2022/01/13 10:29:44;;;;;;;;;;;;;;;;;;4215946;28;1878;-56
2022/01/13 10:32:05;;;;;;;;;;;;;;;;;;4212612;28;855;-57
2022/01/13 10:34:26;;;;;;;;;;;;;;;;;;4213082;28;932;-56
2022/01/13 10:36:47;;;;;;;;;;;;;;;;;;4223685;28;1929;-57
2022/01/13 10:39:07;;;;;;;;;;;;;;;;;;4221314;28;2637;-57
2022/01/13 10:41:36;;;;;;;;;;;;;;;;;;4219544;28;1937;-57
2022/01/13 10:43:57;;;;;;;;;;;;;;;;;;4223302;28;1046;-58
2022/01/13 10:46:17;;;;;;;;;;;;;;;;;;4223917;28;834;-57
2022/01/13 10:48:38;;;;;;;;;;;;;;;;;;4222691;28;2661;-58
2022/01/13 10:50:58;;;;;;;;;;;;;;;;;;4214360;28;1145;-57
2022/01/13 10:53:19;;;;;;;;;;;;;;;;;;4224015;28;834;-58
2022/01/13 10:55:39;;;;;;;;;;;;;;;;;;4223176;28;1824;-58
2022/01/13 10:58:00;;;;;;;;;;;;;;;;;;4218096;28;1923;-57
2022/01/13 11:00:20;;;;;;;;;;;;;;;;;;4214279;28;2626;-58
2022/01/13 11:02:40;;;;;;;;;;;;;;;;;;4223182;28;1035;-58
2022/01/13 11:05:01;;;;;;;;;;;;;;;;;;4223049;28;1224;-58
2022/01/13 11:07:23;;;;;;;;;;;;;;;;;;4207920;28;963;-58
2022/01/13 11:09:44;;;;;;;;;;;;;;;;;;4223747;28;1004;-57
2022/01/13 11:12:04;;;;;;;;;;;;;;;;;;4212262;28;963;-57
2022/01/13 11:14:27;;;;;;;;;;;;;;;;;;4203514;28;974;-57
2022/01/13 11:16:47;;;;;;;;;;;;;;;;;;4208772;28;1906;-58
2022/01/13 11:19:09;;;;;;;;;;;;;;;;;;4221409;28;1396;-57
2022/01/13 11:21:29;;;;;;;;;;;;;;;;;;4217391;28;2646;-58
2022/01/13 11:23:50;;;;;;;;;;;;;;;;;;4207743;28;2611;-57
2022/01/13 11:26:12;;;;;;;;;;;;;;;;;;4201899;28;2731;-57
2022/01/13 11:28:32;;;;;;;;;;;;;;;;;;4204335;28;3996;-58
2022/01/13 11:30:53;;;;;;;;;;;;;;;;;;4204906;28;1216;-58
2022/01/13 11:33:13;;;;;;;;;;;;;;;;;;4205143;28;1182;-58
2022/01/13 11:35:34;;;;;;;;;;;;;;;;;;4205409;28;1003;-58
2022/01/13 11:37:56;;;;;;;;;;;;;;;;;;4205541;28;1910;-58
2022/01/13 11:40:16;;;;;;;;;;;;;;;;;;4205710;28;969;-58
2022/01/13 11:42:36;;;;;;;;;;;;;;;;;;4205650;28;1105;-58
2022/01/13 11:44:57;;;;;;;;;;;;;;;;;;4206403;28;945;-57
2022/01/13 11:47:17;;;;;;;;;;;;;;;;;;4206390;28;959;-58
2022/01/13 11:49:43;;;;;;;;;;;;;;;;;;4206188;28;1012;-58
2022/01/13 11:52:12;;;;;;;;;;;;;;;;;;4206400;28;1356;-57
2022/01/13 11:54:33;;;;;;;;;;;;;;;;;;4206146;28;978;-57
2022/01/13 11:56:54;;;;;;;;;;;;;;;;;;4206043;28;1906;-57
2022/01/13 11:59:14;;;;;;;;;;;;;;;;;;4206289;28;838;-57
2022/01/13 12:01:35;;;;;;;;;;;;;;;;;;4206029;28;949;-58
2022/01/13 12:03:56;;;;;;;;;;;;;;;;;;4206239;28;982;-57
2022/01/13 12:06:17;;;;;;;;;;;;;;;;;;4206128;28;1167;-57
2022/01/13 12:08:38;;;;;;;;;;;;;;;;;;4206166;28;974;-57
2022/01/13 12:10:58;;;;;;;;;;;;;;;;;;4205518;28;1405;-57
2022/01/13 12:13:19;;;;;;;;;;;;;;;;;;4191027;28;978;-57
2022/01/13 12:15:39;;;;;;;;;;;;;;;;;;4206040;28;933;-57
2022/01/13 12:18:01;;;;;;;;;;;;;;;;;;4205747;28;1985;-57
2022/01/13 12:20:22;;;;;;;;;;;;;;;;;;4205700;28;1196;-56
2022/01/13 12:22:47;;;;;;;;;;;;;;;;;;4212019;28;1731;-57
2022/01/13 12:25:08;;;;;;;;;;;;;;;;;;4221624;28;1851;-57
2022/01/13 12:27:28;;;;;;;;;;;;;;;;;;4219977;28;1795;-58
2022/01/13 12:29:48;;;;;;;;;;;;;;;;;;4218617;28;1944;-57
2022/01/13 12:32:09;;;;;;;;;;;;;;;;;;4220562;28;2355;-57
2022/01/13 12:34:29;;;;;;;;;;;;;;;;;;4220732;28;1465;-58
2022/01/13 12:36:49;;;;;;;;;;;;;;;;;;4220691;28;1806;-58
2022/01/13 12:39:09;;;;;;;;;;;;;;;;;;4220389;28;1580;-57
2022/01/13 12:41:32;;;;;;;;;;;;;;;;;;4221186;28;1907;-58
2022/01/13 12:44:12;;;;;;;;;;;;;;;;;;4221636;28;2030;-57
2022/01/13 12:46:34;;;;;;;;;;;;;;;;;;4222130;28;1208;-57
2022/01/13 12:48:55;;;;;;;;;;;;;;;;;;4222529;28;915;-57
2022/01/13 12:51:15;;;;;;;;;;;;;;;;;;4221757;28;938;-57
2022/01/13 12:53:36;;;;;;;;;;;;;;;;;;4221789;28;1093;-58
2022/01/13 12:55:56;;;;;;;;;;;;;;;;;;4221711;28;1145;-58
2022/01/13 12:58:17;;;;;;;;;;;;;;;;;;4222230;28;1976;-58
2022/01/13 13:00:37;;;;;;;;;;;;;;;;;;4221808;28;993;-58
2022/01/13 13:02:57;;;;;;;;;;;;;;;;;;4222135;28;983;-58
2022/01/13 13:05:18;;;;;;;;;;;;;;;;;;4221942;28;1867;-57
2022/01/13 13:07:38;;;;;;;;;;;;;;;;;;4221616;28;1018;-57
2022/01/13 13:09:58;;;;;;;;;;;;;;;;;;4221818;28;982;-57
2022/01/13 13:12:25;;;;;;;;;;;;;;;;;;4222210;28;936;-57
2022/01/13 13:17:20;;;;;;;;;;;;;;;;;;4221631;28;1981;-58
2022/01/13 13:19:40;;;;;;;;;;;;;;;;;;4221561;28;1197;-58
2022/01/13 13:22:01;;;;;;;;;;;;;;;;;;4221636;28;1102;-58
2022/01/13 13:24:22;;;;;;;;;;;;;;;;;;4221676;28;1200;-57
2022/01/13 13:26:42;;;;;;;;;;;;;;;;;;4221509;28;1068;-58
2022/01/13 13:29:03;;;;;;;;;;;;;;;;;;4221459;28;1182;-57
2022/01/13 13:31:23;;;;;;;;;;;;;;;;;;4221529;28;1269;-57
2022/01/13 13:33:43;;;;;;;;;;;;;;;;;;4221664;28;951;-58
2022/01/13 13:36:04;;;;;;;;;;;;;;;;;;4221245;28;1921;-57
2022/01/13 13:38:24;;;;;;;;;;;;;;;;;;4219257;28;1991;-57
2022/01/13 13:40:44;;;;;;;;;;;;;;;;;;4219280;28;1571;-57
2022/01/13 13:43:06;;;;;;;;;;;;;;;;;;4219335;28;1569;-56
2022/01/13 13:45:26;;;;;;;;;;;;;;;;;;4221103;28;1587;-57
2022/01/13 13:47:47;;;;;;;;;;;;;;;;;;4219568;28;1586;-57
2022/01/13 13:50:07;;;;;;;;;;;;;;;;;;4207018;28;1571;-57
2022/01/13 13:52:27;;;;;;;;;;;;;;;;;;4219431;28;1913;-57
2022/01/13 13:54:52;;;;;;;;;;;;;;;;;;4219572;28;1740;-57
2022/01/13 13:57:13;;;;;;;;;;;;;;;;;;4221055;28;2327;-57
2022/01/13 13:59:36;;;;;;;;;;;;;;;;;;4203053;28;1612;-58
2022/01/13 14:01:57;;;;;;;;;;;;;;;;;;4221033;28;1558;-57
2022/01/13 14:04:18;;;;;;;;;;;;;;;;;;4221086;28;957;-56
2022/01/13 14:06:38;;;;;;;;;;;;;;;;;;4220983;28;1139;-57
2022/01/13 14:08:58;;;;;;;;;;;;;;;;;;4221083;28;954;-57
2022/01/13 14:11:18;;;;;;;;;;;;;;;;;;4221350;28;1328;-57
2022/01/13 14:13:39;;;;;;;;;;;;;;;;;;4220964;28;1149;-57
2022/01/13 14:15:59;;;;;;;;;;;;;;;;;;4221081;28;950;-57
2022/01/13 14:18:21;;;;;;;;;;;;;;;;;;4220739;28;1906;-57
2022/01/13 14:20:41;;;;;;;;;;;;;;;;;;4220775;28;1170;-58
2022/01/13 14:23:01;;;;;;;;;;;;;;;;;;4220523;28;1107;-57
2022/01/13 14:25:22;;;;;;;;;;;;;;;;;;4220867;28;1194;-58
2022/01/13 14:27:42;;;;;;;;;;;;;;;;;;4221352;28;938;-60
2022/01/13 14:30:02;;;;;;;;;;;;;;;;;;4220610;28;1147;-58
2022/01/13 14:32:23;;;;;;;;;;;;;;;;;;4220665;28;1110;-57
2022/01/13 14:34:43;;;;;;;;;;;;;;;;;;4221199;28;927;-57
2022/01/13 14:37:04;;;;;;;;;;;;;;;;;;4221230;28;981;-58
2022/01/13 14:39:24;;;;;;;;;;;;;;;;;;4220728;28;1902;-57
2022/01/13 14:41:46;;;;;;;;;;;;;;;;;;4220761;28;948;-57
2022/01/13 14:44:06;;;;;;;;;;;;;;;;;;4220540;28;1020;-57
2022/01/13 14:46:27;;;;;;;;;;;;;;;;;;4220915;28;1321;-57
2022/01/13 14:48:47;;;;;;;;;;;;;;;;;;4220620;28;958;-57
2022/01/13 14:51:08;;;;;;;;;;;;;;;;;;4221067;28;1061;-57
2022/01/13 14:53:28;;;;;;;;;;;;;;;;;;4220818;28;1204;-58
2022/01/13 14:55:49;;;;;;;;;;;;;;;;;;4221045;28;1051;-58
2022/01/13 14:58:09;;;;;;;;;;;;;;;;;;4221602;28;1902;-58
2022/01/13 15:00:30;;;;;;;;;;;;;;;;;;4220655;28;995;-58
2022/01/13 15:02:50;;;;;;;;;;;;;;;;;;4220377;28;941;-58
2022/01/13 15:05:10;;;;;;;;;;;;;;;;;;4221814;28;1045;-58
2022/01/13 15:07:30;;;;;;;;;;;;;;;;;;4223362;28;1027;-58
2022/01/13 15:09:50;;;;;;;;;;;;;;;;;;4223282;28;1100;-57
2022/01/13 15:12:11;;;;;;;;;;;;;;;;;;4223141;28;974;-58
2022/01/13 15:14:31;;;;;;;;;;;;;;;;;;4223140;28;1029;-58
2022/01/13 15:16:51;;;;;;;;;;;;;;;;;;4223113;28;1063;-58
2022/01/13 15:19:15;;;;;;;;;;;;;;;;;;4223035;28;1910;-58
2022/01/13 15:21:35;;;;;;;;;;;;;;;;;;4223196;28;1091;-58
2022/01/13 15:23:56;;;;;;;;;;;;;;;;;;4223159;28;1217;-58
2022/01/13 15:26:16;;;;;;;;;;;;;;;;;;4223112;28;966;-57
2022/01/13 15:28:37;;;;;;;;;;;;;;;;;;4223253;28;1109;-57
2022/01/13 15:30:57;;;;;;;;;;;;;;;;;;4222737;28;1191;-57
2022/01/13 15:33:17;;;;;;;;;;;;;;;;;;4223135;28;1184;-57
2022/01/13 15:35:38;;;;;;;;;;;;;;;;;;4223113;28;1206;-57
2022/01/13 15:37:58;;;;;;;;;;;;;;;;;;4223554;28;1066;-57
2022/01/13 15:40:19;;;;;;;;;;;;;;;;;;4222921;28;1073;-57
2022/01/13 15:42:40;;;;;;;;;;;;;;;;;;4222762;28;1194;-57
2022/01/13 15:45:00;;;;;;;;;;;;;;;;;;4223263;28;1220;-57
2022/01/13 15:47:20;;;;;;;;;;;;;;;;;;4223181;28;1211;-57
2022/01/13 15:49:41;;;;;;;;;;;;;;;;;;4222867;28;1001;-58
2022/01/13 15:52:01;;;;;;;;;;;;;;;;;;4222858;28;970;-58
2022/01/13 15:54:21;;;;;;;;;;;;;;;;;;4222746;28;1082;-57
2022/01/13 15:56:42;;;;;;;;;;;;;;;;;;4222948;28;1066;-57
2022/01/13 15:59:02;;;;;;;;;;;;;;;;;;4222834;28;1979;-56
2022/01/13 16:01:23;;;;;;;;;;;;;;;;;;4222684;28;1314;-57
2022/01/13 16:03:43;;;;;;;;;;;;;;;;;;4222740;28;1004;-57
2022/01/13 16:06:03;;;;;;;;;;;;;;;;;;4222633;28;1065;-57
2022/01/13 16:08:24;;;;;;;;;;;;;;;;;;4221745;28;2477;-57
2022/01/13 16:10:46;;;;;;;;;;;;;;;;;;4209779;28;1733;-57
2022/01/13 16:13:06;;;;;;;;;;;;;;;;;;4221465;28;1592;-58
2022/01/13 16:15:27;;;;;;;;;;;;;;;;;;4222037;28;1590;-58
2022/01/13 16:17:49;;;;;;;;;;;;;;;;;;4221389;28;1381;-58
2022/01/13 16:20:09;;;;;;;;;;;;;;;;;;4222103;28;1983;-58
2022/01/13 16:22:29;;;;;;;;;;;;;;;;;;4222026;28;1021;-58
2022/01/13 16:24:50;;;;;;;;;;;;;;;;;;4221855;28;1342;-57
2022/01/13 16:27:10;;;;;;;;;;;;;;;;;;4222207;28;1715;-58
2022/01/13 16:29:30;;;;;;;;;;;;;;;;;;4221982;28;975;-57
2022/01/13 16:31:51;;;;;;;;;;;;;;;;;;4221772;28;1214;-57
2022/01/13 16:34:11;;;;;;;;;;;;;;;;;;4199732;28;1431;-57
2022/01/13 16:36:32;;;;;;;;;;;;;;;;;;4205366;28;1284;-58
2022/01/13 16:38:52;;;;;;;;;;;;;;;;;;4216145;28;1918;-57